createdAt,value
2022-11-14T00:01:14.901Z,7.75
2022-11-14T00:11:20.237Z,7.72
2022-11-14T00:21:26.084Z,7.66
2022-11-14T00:26:28.500Z,7.59
2022-11-14T00:31:30.953Z,7.61
2022-11-14T00:36:33.840Z,7.59
2022-11-14T00:41:36.429Z,7.58
2022-11-14T00:46:39.164Z,7.54
2022-11-14T00:51:41.935Z,7.54
2022-11-14T00:56:44.488Z,7.53
2022-11-14T01:01:47.599Z,7.51
2022-11-14T01:06:50.474Z,7.47
2022-11-14T01:11:52.981Z,7.47
2022-11-14T01:22:03.081Z,7.42
2022-11-14T01:27:01.640Z,7.47
2022-11-14T01:32:04.291Z,7.41
2022-11-14T01:37:07.175Z,7.42
2022-11-14T01:42:09.378Z,7.42
2022-11-14T01:47:11.925Z,7.38
2022-11-14T01:52:14.727Z,7.39
2022-11-14T02:02:19.987Z,7.34
2022-11-14T02:07:22.963Z,7.28
2022-11-14T02:12:25.392Z,7.28
2022-11-14T02:17:29.895Z,7.3
2022-11-14T02:22:30.579Z,7.25
2022-11-14T02:27:32.938Z,7.25
2022-11-14T02:32:50.981Z,7.28
2022-11-14T02:37:38.344Z,7.28
2022-11-14T02:42:40.921Z,7.29
2022-11-14T02:47:43.377Z,7.32
2022-11-14T02:52:46.100Z,7.36
2022-11-14T02:57:48.636Z,7.34
2022-11-14T03:02:54.139Z,7.38
2022-11-14T03:07:57.024Z,7.37
2022-11-14T03:18:02.244Z,7.36
2022-11-14T03:23:05.113Z,7.42
2022-11-14T03:28:07.569Z,7.41
2022-11-14T03:33:10.383Z,7.4
2022-11-14T03:38:13.207Z,7.36
2022-11-14T03:48:18.239Z,7.3
2022-11-14T03:58:24.138Z,7.28
2022-11-14T04:03:26.478Z,7.24
2022-11-14T04:08:29.469Z,7.22
2022-11-14T04:13:31.958Z,7.15
2022-11-14T04:18:34.411Z,7.07
2022-11-14T04:23:36.983Z,7.09
2022-11-14T04:28:39.696Z,7.14
2022-11-14T04:38:45.658Z,7.1
2022-11-14T04:43:51.275Z,7.05
2022-11-14T04:48:53.666Z,7.01
2022-11-14T04:53:56.332Z,6.94
2022-11-14T04:58:58.909Z,6.91
2022-11-14T05:04:01.378Z,6.91
2022-11-14T05:09:04.073Z,6.92
2022-11-14T05:14:06.768Z,6.93
2022-11-14T05:19:09.377Z,6.91
2022-11-14T05:24:12.103Z,6.93
2022-11-14T05:29:14.931Z,6.96
2022-11-14T05:34:20.433Z,6.87
2022-11-14T05:39:23.140Z,6.85
2022-11-14T05:44:25.870Z,6.92
2022-11-14T05:49:28.457Z,6.93
2022-11-14T05:54:30.960Z,6.88
2022-11-14T05:59:33.817Z,6.9
2022-11-14T06:04:36.611Z,6.98
2022-11-14T06:09:39.343Z,6.96
2022-11-14T06:14:42.047Z,6.93
2022-11-14T06:19:44.713Z,6.92
2022-11-14T06:24:47.720Z,6.87
2022-11-14T06:29:50.169Z,6.84
2022-11-14T06:34:52.714Z,6.84
2022-11-14T06:39:55.444Z,6.83
2022-11-14T06:44:57.830Z,6.91
2022-11-14T06:50:00.576Z,6.88
2022-11-14T06:55:03.233Z,7
2022-11-14T07:00:05.971Z,7.02
2022-11-14T07:05:08.779Z,7.04
2022-11-14T07:10:11.558Z,7.04
2022-11-14T07:15:14.227Z,7.04
2022-11-14T07:20:16.890Z,7.08
2022-11-14T07:25:19.402Z,7.15
2022-11-14T07:30:23.822Z,7.19
2022-11-14T07:35:26.579Z,7.22
2022-11-14T07:40:29.703Z,7.28
2022-11-14T07:45:32.385Z,7.43
2022-11-14T07:50:35.188Z,7.62
2022-11-14T07:55:38.044Z,7.73
2022-11-14T08:00:40.598Z,7.71
2022-11-14T08:05:43.112Z,7.88
2022-11-14T08:10:45.811Z,8.11
2022-11-14T08:15:48.675Z,8.18
2022-11-14T08:20:51.113Z,8.1
2022-11-14T08:25:53.710Z,8.06
2022-11-14T08:30:56.301Z,7.99
2022-11-14T08:35:58.936Z,8.1
2022-11-14T08:41:01.633Z,8.27
2022-11-14T08:46:04.504Z,8.34
2022-11-14T08:51:07.267Z,8.48
2022-11-14T08:56:10.203Z,8.59
2022-11-14T09:01:12.716Z,8.6
2022-11-14T09:06:15.167Z,8.5
2022-11-14T09:11:19.271Z,8.78
2022-11-14T09:16:20.847Z,8.72
2022-11-14T09:21:24.010Z,8.87
2022-11-14T09:26:26.755Z,9.05
2022-11-14T09:31:35.808Z,9.23
2022-11-14T09:36:37.268Z,9.39
2022-11-14T09:41:39.986Z,9.43
2022-11-14T09:46:42.625Z,9.58
2022-11-14T09:51:45.259Z,9.7
2022-11-14T09:56:48.088Z,10.04
2022-11-14T10:01:51.440Z,10.29
2022-11-14T10:06:53.819Z,10.11
2022-11-14T10:11:56.518Z,10.38
2022-11-14T10:16:59.260Z,10.7
2022-11-14T10:22:01.929Z,10.54
2022-11-14T10:27:04.746Z,10.33
2022-11-14T10:32:07.195Z,10.49
2022-11-14T10:37:10.222Z,10.63
2022-11-14T10:42:13.023Z,10.75
2022-11-14T10:52:19.077Z,10.8
2022-11-14T11:02:24.378Z,10.81
2022-11-14T11:07:27.093Z,10.83
2022-11-14T11:12:29.761Z,10.88
2022-11-14T11:17:37.253Z,10.94
2022-11-14T11:22:35.320Z,11.23
2022-11-14T11:27:38.086Z,11.23
2022-11-14T11:32:40.828Z,11.31
2022-11-14T11:37:43.384Z,11.29
2022-11-14T11:47:49.482Z,11.67
2022-11-14T11:52:52.086Z,11.59
2022-11-14T11:57:54.682Z,11.59
2022-11-14T12:02:57.350Z,11.65
2022-11-14T12:07:59.894Z,11.5
2022-11-14T12:13:02.516Z,11.86
2022-11-14T12:18:05.268Z,11.95
2022-11-14T12:23:07.957Z,11.84
2022-11-14T12:28:10.309Z,11.74
2022-11-14T12:33:12.686Z,11.98
2022-11-14T12:38:15.434Z,12
2022-11-14T12:43:18.322Z,11.95
2022-11-14T12:48:21.031Z,11.98
2022-11-14T12:58:26.371Z,11.76
2022-11-14T13:03:32.276Z,11.63
2022-11-14T13:08:34.598Z,11.82
2022-11-14T13:13:37.309Z,11.83
2022-11-14T13:18:40.236Z,11.78
2022-11-14T13:28:45.845Z,11.79
2022-11-14T13:33:48.608Z,11.7
2022-11-14T13:38:51.246Z,11.57
2022-11-14T13:43:54.043Z,11.51
2022-11-14T13:48:56.697Z,11.49
2022-11-14T13:53:59.283Z,11.46
2022-11-14T13:59:02.216Z,11.44
2022-11-14T14:04:04.727Z,11.42
2022-11-14T14:09:07.324Z,11.4
2022-11-14T14:14:09.971Z,11.41
2022-11-14T14:19:12.581Z,11.34
2022-11-14T14:29:17.968Z,11.26
2022-11-14T14:34:20.682Z,11.15
2022-11-14T14:39:23.243Z,11.12
2022-11-14T14:44:25.756Z,11.03
2022-11-14T14:49:29.133Z,11.04
2022-11-14T14:54:31.751Z,10.99
2022-11-14T14:59:34.442Z,10.9
2022-11-14T15:04:37.130Z,10.85
2022-11-14T15:09:39.709Z,10.8
2022-11-14T15:14:42.394Z,10.76
2022-11-14T15:30:25.602Z,10.47
2022-11-14T15:35:28.151Z,10.39
2022-11-14T15:40:33.273Z,10.35
2022-11-14T15:45:33.434Z,10.31
2022-11-14T15:50:36.361Z,10.27
2022-11-14T15:55:39.080Z,10.19
2022-11-14T16:00:41.680Z,10.19
2022-11-14T16:05:44.284Z,10.13
2022-11-14T16:10:46.796Z,10.07
2022-11-14T16:15:49.642Z,10.03
2022-11-14T16:20:52.433Z,10
2022-11-14T16:25:55.034Z,9.93
2022-11-14T16:30:57.880Z,9.92
2022-11-14T16:36:00.612Z,9.89
2022-11-14T16:41:03.145Z,9.83
2022-11-14T16:46:05.844Z,9.77
2022-11-14T16:51:20.432Z,9.69
2022-11-14T16:56:11.194Z,9.62
2022-11-14T17:01:17.383Z,9.54
2022-11-14T17:06:16.724Z,9.51
2022-11-14T17:11:19.531Z,9.43
2022-11-14T17:16:22.010Z,9.38
2022-11-14T17:21:24.757Z,9.32
2022-11-14T17:26:27.167Z,9.3
2022-11-14T17:31:32.562Z,9.29
2022-11-14T17:36:32.217Z,9.19
2022-11-14T17:41:34.788Z,9.26
2022-11-14T17:46:37.366Z,9.16
2022-11-14T17:51:40.165Z,9.13
2022-11-14T17:56:46.629Z,9.14
2022-11-14T18:01:45.282Z,9.19
2022-11-14T18:06:47.820Z,9.04
2022-11-14T18:11:50.340Z,8.95
2022-11-14T18:17:13.043Z,8.93
2022-11-14T18:21:55.485Z,8.92
2022-11-14T18:26:58.136Z,8.95
2022-11-14T18:32:00.803Z,8.96
2022-11-14T18:37:03.800Z,8.9
2022-11-14T18:42:06.080Z,8.85
2022-11-14T18:47:08.643Z,8.78
2022-11-14T18:52:16.837Z,8.72
2022-11-14T18:57:13.755Z,8.65
2022-11-14T19:02:16.275Z,8.64
2022-11-14T19:07:19.062Z,8.56
2022-11-14T19:12:21.668Z,8.55
2022-11-14T19:17:24.332Z,8.58
2022-11-14T19:22:26.721Z,8.58
2022-11-14T19:27:29.343Z,8.56
2022-11-14T19:32:31.965Z,8.59
2022-11-14T19:37:35.071Z,8.66
2022-11-14T19:42:37.775Z,8.74
2022-11-14T19:47:40.869Z,8.76
2022-11-14T19:52:43.544Z,8.7
2022-11-14T19:57:46.329Z,8.71
2022-11-14T20:02:48.976Z,8.65
2022-11-14T20:13:01.842Z,8.52
2022-11-14T20:18:04.354Z,8.44
2022-11-14T20:23:06.902Z,8.4
2022-11-14T20:28:09.753Z,8.33
2022-11-14T20:33:12.312Z,8.27
2022-11-14T20:38:15.055Z,8.19
2022-11-14T20:43:17.585Z,8.15
2022-11-14T20:48:20.380Z,8.15
2022-11-14T20:53:22.972Z,8.11
2022-11-14T20:58:25.685Z,8.12
2022-11-14T21:03:29.075Z,8.08
2022-11-14T21:08:31.912Z,8.1
2022-11-14T21:13:34.255Z,8.01
2022-11-14T21:23:44.808Z,7.86
2022-11-14T21:28:47.422Z,7.89
2022-11-14T21:33:50.051Z,7.88
2022-11-14T21:38:52.628Z,7.8
2022-11-14T21:43:55.269Z,7.8
2022-11-14T21:48:57.764Z,7.73
2022-11-14T21:54:00.336Z,7.68
2022-11-14T21:59:03.476Z,7.62
2022-11-14T22:04:06.045Z,7.65
2022-11-14T22:09:08.868Z,7.67
2022-11-14T22:19:13.777Z,7.64
2022-11-14T22:24:16.568Z,7.58
2022-11-14T22:29:18.959Z,7.57
2022-11-14T22:34:21.600Z,7.49
2022-11-14T22:39:24.462Z,7.46
2022-11-14T22:44:26.981Z,7.46
2022-11-14T22:49:29.562Z,7.43
2022-11-14T22:59:35.060Z,7.41
2022-11-14T23:04:37.864Z,7.37
2022-11-14T23:09:40.416Z,7.36
2022-11-14T23:19:45.859Z,7.27
2022-11-14T23:24:48.738Z,7.25
2022-11-14T23:29:51.632Z,7.32
2022-11-14T23:39:59.793Z,7.3
2022-11-14T23:45:02.530Z,7.27
2022-11-14T23:50:05.347Z,7.18
2022-11-14T23:55:07.938Z,7.17
